DBBB/COO METAR and TAF weather

Enter ICAO airport designator
Station Type Date Time Source
DBBB METAR 2022/06/28 15:00 UTC NOAA

DBBB 281500Z 22011KT 9999 SCT012 29/25 Q1011 NOSIG


Station Type Date Time Source
DBBB Decoded METAR 2022/06/28 15:00 UTC NOAA

Cotonou, Benin (DBBB) 06-21N 002-23E 9M
Jun 28, 2022 - 11:00 AM EDT / 2022.06.28 1500 UTC
Wind: from the SW (220 degrees) at 13 MPH (11 KT):0
Visibility: greater than 7 mile(s):0
Sky conditions: partly cloudy
Temperature: 84 F (29 C)
Dew Point: 77 F (25 C)
Relative Humidity: 79%
Pressure (altimeter): 29.85 in. Hg (1011 hPa)
ob: DBBB 281500Z 22011KT 9999 SCT012 29/25 Q1011 NOSIG
cycle: 15

Station Type Date Time Source
DBBB TAF 2022/06/28 12:06 UTC NOAA

TAF TAF DBBB 281100Z 2812/2918 22010KT 9999 SCT012 PROB30
TEMPO 2814/2820 TS BKN012 FEW023CB PROB30
TEMPO 2820/2824 4000 TSRA BKN010 FEW023CB

Example: see airport list